createdAt,value
2019-03-05T00:00:31.514Z,28.87
2019-03-05T00:02:57.838Z,24.97
2019-03-05T00:05:25.173Z,26.23
2019-03-05T00:07:51.457Z,27.50
2019-03-05T00:10:17.651Z,25.03
2019-03-05T00:12:43.963Z,26.20
2019-03-05T00:15:11.712Z,26.83
2019-03-05T00:17:39.159Z,28.60
2019-03-05T00:20:12.849Z,28.97
2019-03-05T00:22:39.768Z,26.03
2019-03-05T00:25:08.865Z,26.83
2019-03-05T00:27:36.971Z,26.67
2019-03-05T00:30:33.937Z,27.33
2019-03-05T00:33:16.241Z,31.20
2019-03-05T00:35:55.460Z,30.97
2019-03-05T00:38:43.544Z,28.70
2019-03-05T00:41:16.427Z,26.10
2019-03-05T00:44:11.798Z,25.27
2019-03-05T00:46:44.799Z,25.93
2019-03-05T00:49:14.811Z,28.77
2019-03-05T00:51:44.747Z,27.03
2019-03-05T00:54:30.208Z,24.73
2019-03-05T00:57:29.039Z,25.03
2019-03-05T01:00:07.931Z,27.27
2019-03-05T01:02:55.847Z,26.40
2019-03-05T01:05:59.512Z,26.17
2019-03-05T01:08:27.009Z,28.50
2019-03-05T01:10:53.383Z,26.00
2019-03-05T01:13:19.674Z,24.93
2019-03-05T01:15:46.719Z,28.43
2019-03-05T01:18:12.948Z,27.07
2019-03-05T01:20:39.175Z,26.17
2019-03-05T01:23:06.583Z,24.70
2019-03-05T01:25:33.525Z,22.83
2019-03-05T01:28:00.038Z,27.40
2019-03-05T01:30:44.485Z,26.37
2019-03-05T01:33:12.671Z,27.53
2019-03-05T01:35:40.793Z,24.53
2019-03-05T01:38:13.751Z,28.47
2019-03-05T01:40:40.178Z,31.43
2019-03-05T01:43:06.690Z,20.60
2019-03-05T01:45:33.114Z,26.07
2019-03-05T01:47:59.427Z,21.50
2019-03-05T01:50:25.770Z,20.30
2019-03-05T01:52:52.090Z,26.80
2019-03-05T01:55:18.330Z,22.10
2019-03-05T01:57:44.548Z,28.67
2019-03-05T02:00:12.080Z,23.40
2019-03-05T02:02:38.652Z,30.60
2019-03-05T02:05:06.251Z,27.07
2019-03-05T02:07:32.545Z,23.23
2019-03-05T02:09:58.752Z,28.07
2019-03-05T02:12:24.982Z,26.87
2019-03-05T02:14:51.118Z,24.80
2019-03-05T02:17:17.467Z,25.93
2019-03-05T02:19:44.804Z,23.83
2019-03-05T02:22:14.715Z,23.30
2019-03-05T02:24:59.943Z,27.50
2019-03-05T02:27:54.128Z,23.80
2019-03-05T02:30:32.794Z,19.23
2019-03-05T02:33:02.698Z,24.83
2019-03-05T02:35:53.675Z,29.17
2019-03-05T02:38:35.665Z,21.90
2019-03-05T02:41:08.454Z,26.20
2019-03-05T02:43:47.520Z,25.43
2019-03-05T02:46:43.469Z,28.23
2019-03-05T02:49:22.317Z,24.53
2019-03-05T02:52:09.018Z,25.37
2019-03-05T02:54:54.588Z,26.60
2019-03-05T02:57:20.558Z,24.67
2019-03-05T02:59:46.811Z,23.33
2019-03-05T03:02:21.180Z,26.63
2019-03-05T03:04:51.964Z,22.47
2019-03-05T03:07:18.333Z,23.67
2019-03-05T03:09:51.096Z,22.57
2019-03-05T03:12:17.463Z,24.17
2019-03-05T03:14:43.785Z,28.30
2019-03-05T03:17:09.976Z,25.87
2019-03-05T03:19:36.226Z,28.63
2019-03-05T03:22:02.536Z,26.00
2019-03-05T03:24:28.775Z,29.53
2019-03-05T03:26:54.890Z,23.07
2019-03-05T03:29:21.117Z,21.70
2019-03-05T03:31:47.643Z,20.07
2019-03-05T03:34:14.038Z,20.53
2019-03-05T03:36:40.265Z,19.87
2019-03-05T03:39:06.464Z,11.97
2019-03-05T03:41:33.312Z,10.17
2019-03-05T03:43:59.742Z,6.73
2019-03-05T03:46:25.854Z,3.17
2019-03-05T03:48:52.226Z,4.93
2019-03-05T03:51:18.563Z,4.17
2019-03-05T03:53:44.886Z,5.00
2019-03-05T03:56:11.307Z,5.07
2019-03-05T03:58:37.711Z,5.13
2019-03-05T04:01:06.743Z,6.70
2019-03-05T04:03:32.185Z,3.73
2019-03-05T04:05:58.386Z,5.93
2019-03-05T04:08:24.669Z,6.47
2019-03-05T04:10:50.792Z,6.60
2019-03-05T04:13:16.988Z,6.83
2019-03-05T04:15:43.600Z,7.70
2019-03-05T04:18:09.815Z,7.90
2019-03-05T04:20:37.976Z,7.50
2019-03-05T04:23:04.199Z,6.47
2019-03-05T04:25:30.340Z,8.63
2019-03-05T04:27:56.464Z,8.80
2019-03-05T04:30:22.709Z,11.03
2019-03-05T04:32:49.019Z,12.33
2019-03-05T04:35:15.159Z,14.30
2019-03-05T04:37:41.393Z,15.07
2019-03-05T04:40:09.606Z,20.33
2019-03-05T04:42:35.954Z,20.43
2019-03-05T04:45:05.522Z,18.47
2019-03-05T04:47:31.755Z,15.90
2019-03-05T04:49:59.864Z,17.57
2019-03-05T04:52:26.310Z,19.33
2019-03-05T04:54:52.546Z,18.70
2019-03-05T04:57:18.748Z,18.67
2019-03-05T04:59:44.974Z,22.50
2019-03-05T05:02:11.310Z,20.03
2019-03-05T05:04:37.508Z,16.57
2019-03-05T05:07:03.830Z,23.17
2019-03-05T05:09:30.149Z,21.47
2019-03-05T05:11:56.440Z,20.30
2019-03-05T05:14:22.693Z,22.17
2019-03-05T05:16:49.001Z,20.67
2019-03-05T05:19:15.277Z,22.77
2019-03-05T05:21:41.408Z,23.43
2019-03-05T05:24:07.553Z,23.87
2019-03-05T05:26:34.806Z,18.53
2019-03-05T05:29:01.015Z,21.60
2019-03-05T05:31:27.118Z,21.30
2019-03-05T05:33:53.289Z,18.03
2019-03-05T05:36:19.528Z,22.70
2019-03-05T05:38:45.679Z,19.57
2019-03-05T05:41:12.115Z,23.30
2019-03-05T05:43:38.336Z,20.23
2019-03-05T05:46:04.769Z,20.87
2019-03-05T05:48:31.070Z,26.97
2019-03-05T05:50:57.334Z,22.00
2019-03-05T05:53:23.466Z,19.90
2019-03-05T05:55:49.829Z,19.93
2019-03-05T05:58:16.145Z,21.93
2019-03-05T06:00:44.301Z,22.17
2019-03-05T06:03:10.403Z,27.83
2019-03-05T06:05:36.702Z,21.97
2019-03-05T06:08:02.870Z,22.70
2019-03-05T06:10:28.975Z,21.87
2019-03-05T06:12:55.192Z,24.30
2019-03-05T06:15:21.524Z,23.13
2019-03-05T06:17:47.589Z,25.13
2019-03-05T06:20:16.978Z,20.77
2019-03-05T06:22:43.314Z,25.50
2019-03-05T06:25:10.636Z,19.53
2019-03-05T06:27:36.979Z,21.97
2019-03-05T06:30:10.886Z,20.93
2019-03-05T06:32:37.119Z,22.47
2019-03-05T06:35:04.289Z,19.93
2019-03-05T06:37:33.077Z,20.40
2019-03-05T06:39:59.517Z,18.17
2019-03-05T06:42:25.704Z,20.33
2019-03-05T06:44:51.803Z,20.73
2019-03-05T06:47:17.908Z,17.40
2019-03-05T06:49:44.007Z,21.13
2019-03-05T06:52:11.849Z,22.53
2019-03-05T06:54:38.308Z,19.77
2019-03-05T06:57:04.602Z,17.90
2019-03-05T06:59:30.723Z,20.70
2019-03-05T07:01:56.941Z,22.97
2019-03-05T07:04:23.209Z,21.80
2019-03-05T07:09:40.225Z,20.10
2019-03-05T07:12:37.093Z,21.40
2019-03-05T07:15:09.740Z,17.87
2019-03-05T07:17:54.598Z,20.27
2019-03-05T07:20:39.239Z,18.57
2019-03-05T07:23:19.834Z,20.50
2019-03-05T07:25:46.154Z,18.43
2019-03-05T07:30:52.283Z,18.90
2019-03-05T07:33:18.611Z,18.83
2019-03-05T07:35:45.046Z,20.63
2019-03-05T07:38:11.430Z,20.00
2019-03-05T07:40:37.777Z,21.77
2019-03-05T07:43:04.014Z,22.13
2019-03-05T07:45:31.463Z,25.57
2019-03-05T07:47:57.770Z,21.63
2019-03-05T07:50:25.005Z,23.57
2019-03-05T07:52:51.189Z,19.63
2019-03-05T07:55:17.388Z,21.80
2019-03-05T07:57:43.703Z,24.90
2019-03-05T08:00:15.871Z,21.57
2019-03-05T08:02:42.335Z,22.73
2019-03-05T08:05:11.452Z,20.53
2019-03-05T08:07:37.681Z,26.13
2019-03-05T08:10:10.733Z,15.77
2019-03-05T08:13:12.936Z,20.27
2019-03-05T08:15:47.442Z,17.87
2019-03-05T08:18:13.547Z,16.10
2019-03-05T08:20:39.851Z,23.30
2019-03-05T08:23:06.473Z,19.30
2019-03-05T08:25:32.661Z,20.13
2019-03-05T08:27:58.859Z,20.40
2019-03-05T08:30:25.140Z,20.90
2019-03-05T08:32:51.418Z,20.70
2019-03-05T08:35:17.502Z,20.93
2019-03-05T08:37:43.805Z,18.17
2019-03-05T08:40:11.901Z,19.20
2019-03-05T08:42:38.219Z,19.50
2019-03-05T08:45:08.141Z,21.73
2019-03-05T08:47:34.404Z,20.20
2019-03-05T08:50:00.665Z,20.93
2019-03-05T08:52:27.039Z,17.10
2019-03-05T08:54:53.309Z,20.30
2019-03-05T08:57:19.646Z,21.57
2019-03-05T08:59:45.852Z,21.73
2019-03-05T09:02:11.981Z,19.27
2019-03-05T09:04:38.306Z,19.77
2019-03-05T09:07:04.637Z,22.10
2019-03-05T09:09:30.943Z,20.67
2019-03-05T09:11:57.550Z,19.77
2019-03-05T09:14:23.851Z,20.63
2019-03-05T09:16:51.285Z,22.13
2019-03-05T09:19:17.706Z,19.83
2019-03-05T09:21:44.030Z,25.60
2019-03-05T09:24:10.997Z,25.30
2019-03-05T09:26:37.205Z,24.13
2019-03-05T09:29:03.722Z,24.47
2019-03-05T09:31:30.178Z,22.37
2019-03-05T09:33:56.298Z,26.17
2019-03-05T09:36:23.513Z,25.70
2019-03-05T09:38:49.751Z,20.70
2019-03-05T09:41:16.077Z,23.47
2019-03-05T09:43:42.501Z,22.00
2019-03-05T09:46:08.799Z,23.30
2019-03-05T09:48:34.924Z,25.40
2019-03-05T09:51:01.327Z,22.40
2019-03-05T09:53:27.666Z,20.27
2019-03-05T09:55:54.867Z,19.17
2019-03-05T09:58:21.202Z,20.17
2019-03-05T10:00:48.521Z,21.10
2019-03-05T10:03:14.930Z,19.83
2019-03-05T10:05:41.249Z,21.57
2019-03-05T10:08:07.498Z,20.93
2019-03-05T10:10:33.853Z,21.57
2019-03-05T10:13:04.239Z,19.20
2019-03-05T10:15:29.071Z,20.47
2019-03-05T10:17:55.520Z,18.63
2019-03-05T10:20:25.681Z,20.00
2019-03-05T10:22:52.173Z,20.00
2019-03-05T10:25:21.119Z,19.50
2019-03-05T10:27:47.820Z,17.87
2019-03-05T10:30:25.160Z,19.57
2019-03-05T10:32:52.022Z,20.20
2019-03-05T10:35:20.671Z,19.10
2019-03-05T10:37:47.076Z,22.03
2019-03-05T10:40:23.112Z,18.37
2019-03-05T10:42:49.454Z,17.87
2019-03-05T10:45:17.551Z,18.73
2019-03-05T10:47:45.226Z,18.70
2019-03-05T10:50:15.735Z,19.83
2019-03-05T10:52:42.197Z,22.20
2019-03-05T10:55:10.136Z,23.93
2019-03-05T10:57:36.453Z,22.20
2019-03-05T11:00:22.738Z,22.33
2019-03-05T11:02:50.151Z,22.13
2019-03-05T11:05:16.467Z,22.90
2019-03-05T11:07:42.878Z,21.97
2019-03-05T11:10:13.673Z,20.60
2019-03-05T11:12:40.167Z,21.13
2019-03-05T11:15:18.944Z,22.80
2019-03-05T11:17:45.231Z,20.83
2019-03-05T11:20:11.655Z,24.20
2019-03-05T11:22:37.931Z,22.87
2019-03-05T11:25:09.053Z,21.67
2019-03-05T11:27:35.254Z,22.10
2019-03-05T11:30:01.701Z,20.57
2019-03-05T11:32:28.088Z,21.20
2019-03-05T11:34:54.487Z,20.70
2019-03-05T11:37:20.805Z,22.43
2019-03-05T11:39:47.086Z,26.20
2019-03-05T11:42:13.293Z,21.30
2019-03-05T11:44:39.678Z,18.67
2019-03-05T11:47:06.322Z,20.57
2019-03-05T11:49:32.617Z,23.30
2019-03-05T11:51:58.947Z,20.23
2019-03-05T11:54:25.263Z,14.77
2019-03-05T11:56:51.707Z,16.53
2019-03-05T11:59:18.845Z,17.83
2019-03-05T12:01:44.952Z,16.13
2019-03-05T12:04:11.480Z,17.33
2019-03-05T12:06:37.786Z,16.73
2019-03-05T12:09:05.119Z,17.37
2019-03-05T12:11:32.842Z,14.77
2019-03-05T12:13:59.029Z,14.27
2019-03-05T12:16:25.309Z,14.10
2019-03-05T12:18:51.550Z,13.77
2019-03-05T12:21:17.769Z,15.10
2019-03-05T12:23:47.257Z,14.43
2019-03-05T12:26:12.331Z,16.17
2019-03-05T12:28:38.813Z,16.03
2019-03-05T12:31:05.231Z,14.03
2019-03-05T12:33:31.582Z,16.30
2019-03-05T12:35:57.946Z,14.57
2019-03-05T12:38:24.291Z,14.97
2019-03-05T12:40:50.509Z,14.73
2019-03-05T12:43:17.050Z,14.53
2019-03-05T12:45:43.232Z,13.27
2019-03-05T12:48:09.572Z,13.70
2019-03-05T12:50:36.591Z,15.50
2019-03-05T12:53:03.525Z,15.40
2019-03-05T12:55:29.900Z,15.17
2019-03-05T12:57:56.320Z,16.13
2019-03-05T13:00:32.658Z,13.70
2019-03-05T13:02:59.075Z,13.93
2019-03-05T13:05:25.553Z,12.53
2019-03-05T13:07:52.501Z,15.50
2019-03-05T13:10:22.111Z,15.27
2019-03-05T13:12:48.304Z,12.50
2019-03-05T13:15:27.021Z,13.10
2019-03-05T13:17:53.351Z,16.07
2019-03-05T13:20:22.527Z,12.63
2019-03-05T13:22:48.061Z,14.70
2019-03-05T13:28:12.266Z,12.67
2019-03-05T13:30:40.365Z,14.87
2019-03-05T13:33:06.865Z,15.77
2019-03-05T13:35:33.244Z,15.37
2019-03-05T13:38:07.501Z,13.57
2019-03-05T13:40:37.747Z,13.43
2019-03-05T13:43:02.145Z,18.37
2019-03-05T13:45:28.566Z,13.20
2019-03-05T13:48:14.719Z,13.40
2019-03-05T13:51:13.278Z,16.03
2019-03-05T13:53:46.298Z,12.57
2019-03-05T13:56:19.136Z,14.97
2019-03-05T13:59:06.953Z,15.97
2019-03-05T14:01:33.341Z,15.50
2019-03-05T14:04:06.434Z,12.23
2019-03-05T14:06:53.346Z,15.97
2019-03-05T14:09:19.260Z,14.00
2019-03-05T14:11:47.972Z,15.97
2019-03-05T14:14:22.670Z,14.40
2019-03-05T14:17:02.828Z,15.30
2019-03-05T14:19:29.050Z,14.17
2019-03-05T14:21:55.407Z,13.73
2019-03-05T14:24:21.665Z,17.17
2019-03-05T14:26:48.025Z,12.83
2019-03-05T14:29:14.406Z,14.23
2019-03-05T14:31:41.157Z,13.23
2019-03-05T14:34:07.608Z,13.17
2019-03-05T14:36:34.055Z,15.50
2019-03-05T14:39:01.079Z,14.93
2019-03-05T14:41:29.235Z,12.07
2019-03-05T14:43:55.627Z,15.03
2019-03-05T14:46:22.028Z,13.83
2019-03-05T14:48:48.600Z,14.17
2019-03-05T14:51:15.169Z,13.77
2019-03-05T14:53:41.424Z,16.30
2019-03-05T14:56:07.921Z,12.93
2019-03-05T14:58:34.252Z,15.20
2019-03-05T15:01:00.763Z,12.90
2019-03-05T15:03:26.887Z,12.90
2019-03-05T15:05:53.254Z,15.60
2019-03-05T15:08:19.709Z,14.57
2019-03-05T15:10:45.993Z,13.10
2019-03-05T15:13:17.392Z,13.13
2019-03-05T15:15:40.671Z,14.43
2019-03-05T15:18:06.958Z,12.63
2019-03-05T15:20:33.275Z,15.57
2019-03-05T15:22:59.464Z,13.10
2019-03-05T15:25:25.801Z,11.57
2019-03-05T15:27:52.251Z,12.97
2019-03-05T15:30:22.414Z,12.67
2019-03-05T15:32:48.589Z,15.53
2019-03-05T15:35:15.180Z,14.97
2019-03-05T15:37:41.519Z,13.73
2019-03-05T15:40:10.439Z,18.43
2019-03-05T15:42:36.791Z,14.03
2019-03-05T15:45:06.049Z,15.83
2019-03-05T15:47:32.331Z,13.93
2019-03-05T15:49:58.629Z,13.40
2019-03-05T15:52:24.787Z,13.37
2019-03-05T15:54:51.074Z,13.43
2019-03-05T15:57:25.826Z,12.03
2019-03-05T15:59:45.598Z,15.63
2019-03-05T16:02:11.931Z,15.87
2019-03-05T16:04:39.635Z,13.53
2019-03-05T16:07:10.808Z,14.80
2019-03-05T16:09:39.076Z,13.73
2019-03-05T16:12:05.955Z,15.07
2019-03-05T16:14:32.899Z,11.37
2019-03-05T16:17:00.036Z,13.80
2019-03-05T16:19:26.395Z,12.97
2019-03-05T16:21:52.613Z,14.37
2019-03-05T16:24:18.948Z,12.33
2019-03-05T16:26:45.222Z,12.23
2019-03-05T16:29:11.621Z,14.80
2019-03-05T16:31:49.845Z,11.87
2019-03-05T16:34:34.133Z,14.30
2019-03-05T16:37:05.688Z,13.03
2019-03-05T16:39:38.694Z,13.60
2019-03-05T16:42:08.838Z,14.60
2019-03-05T16:44:37.151Z,13.67
2019-03-05T16:47:22.213Z,13.13
2019-03-05T16:49:56.286Z,13.33
2019-03-05T16:52:24.536Z,13.20
2019-03-05T16:55:09.431Z,17.07
2019-03-05T16:57:43.605Z,12.13
2019-03-05T17:00:24.026Z,16.10
2019-03-05T17:03:07.205Z,12.97
2019-03-05T17:05:50.717Z,15.90
2019-03-05T17:08:34.104Z,14.67
2019-03-05T17:11:02.329Z,15.60
2019-03-05T17:13:29.058Z,15.47
2019-03-05T17:15:56.608Z,17.93
2019-03-05T17:18:22.830Z,12.93
2019-03-05T17:20:49.410Z,13.83
2019-03-05T17:23:15.895Z,16.50
2019-03-05T17:25:42.313Z,16.03
2019-03-05T17:28:08.773Z,14.97
2019-03-05T17:30:36.203Z,14.90
2019-03-05T17:33:02.630Z,14.13
2019-03-05T17:35:29.273Z,14.77
2019-03-05T17:37:55.715Z,12.77
2019-03-05T17:40:22.063Z,17.43
2019-03-05T17:42:50.204Z,15.47
2019-03-05T17:45:21.492Z,17.40
2019-03-05T17:47:48.306Z,15.17
2019-03-05T17:50:14.829Z,14.50
2019-03-05T17:52:42.003Z,14.70
2019-03-05T17:55:11.749Z,16.17
2019-03-05T17:57:38.068Z,15.03
2019-03-05T18:00:08.117Z,13.20
2019-03-05T18:02:34.332Z,12.80
2019-03-05T18:05:01.952Z,18.80
2019-03-05T18:07:29.901Z,13.40
2019-03-05T18:09:56.250Z,15.20
2019-03-05T18:12:22.708Z,14.93
2019-03-05T18:14:49.568Z,16.80
2019-03-05T18:17:15.955Z,15.87
2019-03-05T18:19:42.344Z,17.33
2019-03-05T18:22:08.615Z,14.97
2019-03-05T18:24:34.964Z,15.60
2019-03-05T18:27:01.524Z,15.73
2019-03-05T18:29:28.025Z,14.47
2019-03-05T18:31:54.459Z,12.33
2019-03-05T18:34:20.784Z,14.67
2019-03-05T18:36:47.209Z,16.70
2019-03-05T18:39:13.782Z,15.43
2019-03-05T18:41:41.545Z,17.17
2019-03-05T18:44:07.980Z,16.87
2019-03-05T18:46:34.302Z,18.37
2019-03-05T18:49:00.760Z,17.83
2019-03-05T18:51:28.160Z,19.50
2019-03-05T18:53:54.484Z,24.50
2019-03-05T18:56:20.721Z,20.37
2019-03-05T18:58:47.067Z,17.70
2019-03-05T19:01:13.431Z,21.00
2019-03-05T19:03:40.827Z,18.63
2019-03-05T19:06:07.400Z,17.73
2019-03-05T19:08:33.847Z,21.73
2019-03-05T19:11:00.172Z,17.23
2019-03-05T19:13:26.822Z,18.93
2019-03-05T19:15:53.270Z,15.97
2019-03-05T19:18:19.489Z,19.40
2019-03-05T19:20:45.960Z,16.37
2019-03-05T19:23:12.288Z,17.93
2019-03-05T19:25:43.386Z,17.80
2019-03-05T19:28:11.486Z,19.57
2019-03-05T19:30:40.084Z,18.70
2019-03-05T19:33:06.286Z,16.70
2019-03-05T19:35:32.527Z,17.60
2019-03-05T19:37:58.859Z,18.30
2019-03-05T19:40:31.966Z,18.33
2019-03-05T19:42:58.530Z,15.67
2019-03-05T19:45:24.948Z,21.50
2019-03-05T19:47:51.412Z,20.23
2019-03-05T19:50:19.346Z,19.10
2019-03-05T19:52:45.779Z,16.43
2019-03-05T19:55:19.674Z,22.33
2019-03-05T19:57:46.117Z,17.67
2019-03-05T20:00:23.061Z,18.43
2019-03-05T20:02:51.505Z,19.67
2019-03-05T20:05:17.854Z,15.50
2019-03-05T20:07:44.375Z,15.93
2019-03-05T20:10:19.573Z,18.67
2019-03-05T20:12:46.103Z,18.83
2019-03-05T20:15:14.852Z,21.17
2019-03-05T20:17:41.468Z,17.40
2019-03-05T20:20:08.876Z,16.37
2019-03-05T20:22:35.405Z,16.47
2019-03-05T20:25:03.652Z,19.00
2019-03-05T20:27:30.390Z,20.50
2019-03-05T20:29:56.831Z,16.83
2019-03-05T20:32:23.523Z,22.30
2019-03-05T20:34:49.959Z,18.87
2019-03-05T20:37:16.418Z,19.77
2019-03-05T20:39:42.874Z,15.70
2019-03-05T20:42:09.219Z,18.37
2019-03-05T20:44:35.672Z,19.23
2019-03-05T20:47:02.126Z,16.67
2019-03-05T20:49:28.327Z,17.30
2019-03-05T20:51:54.731Z,17.07
2019-03-05T20:54:20.963Z,18.67
2019-03-05T20:56:47.373Z,17.40
2019-03-05T20:59:13.582Z,18.80
2019-03-05T21:01:39.800Z,17.07
2019-03-05T21:04:06.149Z,15.90
2019-03-05T21:06:33.610Z,16.27
2019-03-05T21:08:59.800Z,15.53
2019-03-05T21:11:26.130Z,15.03
2019-03-05T21:13:52.542Z,17.17
2019-03-05T21:16:18.965Z,14.17
2019-03-05T21:18:45.486Z,15.40
2019-03-05T21:21:11.732Z,16.63
2019-03-05T21:23:38.035Z,17.07
2019-03-05T21:26:04.339Z,15.63
2019-03-05T21:28:30.457Z,17.80
2019-03-05T21:30:56.761Z,20.73
2019-03-05T21:33:23.262Z,14.57
2019-03-05T21:35:49.627Z,17.43
2019-03-05T21:38:15.961Z,18.90
2019-03-05T21:40:42.252Z,16.37
2019-03-05T21:43:08.646Z,16.83
2019-03-05T21:45:39.955Z,18.23
2019-03-05T21:48:06.327Z,15.43
2019-03-05T21:50:32.731Z,14.00
2019-03-05T21:52:59.140Z,17.67
2019-03-05T21:55:25.488Z,18.60
2019-03-05T21:57:51.854Z,15.83
2019-03-05T22:00:20.864Z,15.87
2019-03-05T22:02:47.592Z,15.97
2019-03-05T22:05:14.086Z,18.00
2019-03-05T22:07:40.781Z,20.57
2019-03-05T22:10:13.732Z,15.93
2019-03-05T22:12:40.057Z,18.27
2019-03-05T22:15:14.946Z,19.93
2019-03-05T22:17:41.356Z,19.97
2019-03-05T22:20:10.183Z,15.57
2019-03-05T22:22:36.470Z,19.47
2019-03-05T22:25:05.285Z,17.63
2019-03-05T22:27:31.613Z,17.97
2019-03-05T22:29:57.945Z,18.60
2019-03-05T22:32:24.072Z,19.13
2019-03-05T22:34:50.308Z,21.63
2019-03-05T22:37:16.549Z,19.70
2019-03-05T22:39:42.738Z,21.40
2019-03-05T22:42:09.266Z,18.33
2019-03-05T22:44:35.422Z,21.23
2019-03-05T22:47:01.686Z,15.83
2019-03-05T22:49:28.925Z,18.33
2019-03-05T22:51:55.096Z,18.17
2019-03-05T22:54:21.301Z,17.60
2019-03-05T22:56:47.752Z,17.20
2019-03-05T22:59:14.063Z,18.43
2019-03-05T23:01:40.461Z,22.00
2019-03-05T23:04:06.983Z,18.60
2019-03-05T23:06:33.898Z,17.53
2019-03-05T23:09:00.596Z,24.77
2019-03-05T23:11:27.571Z,20.83
2019-03-05T23:13:53.887Z,17.10
2019-03-05T23:16:20.569Z,16.83
2019-03-05T23:18:47.100Z,21.63
2019-03-05T23:21:14.044Z,16.50
2019-03-05T23:23:40.241Z,18.83
2019-03-05T23:26:07.042Z,15.63
2019-03-05T23:28:33.272Z,16.70
2019-03-05T23:30:59.707Z,18.40
2019-03-05T23:33:26.021Z,17.40
2019-03-05T23:35:52.228Z,16.90
2019-03-05T23:38:19.687Z,16.40
2019-03-05T23:40:46.277Z,20.07
2019-03-05T23:43:12.786Z,17.67
2019-03-05T23:45:39.112Z,15.73
2019-03-05T23:48:05.344Z,17.03
2019-03-05T23:50:31.656Z,19.07
2019-03-05T23:52:57.766Z,17.27
2019-03-05T23:55:24.055Z,17.87
2019-03-05T23:57:50.324Z,17.53
